createdAt,value
2023-02-05T00:02:52.160Z,7.38
2023-02-05T00:07:53.506Z,7.30
2023-02-05T00:12:54.960Z,6.45
2023-02-05T00:17:56.260Z,6.63
2023-02-05T00:22:57.660Z,5.97
2023-02-05T00:27:59.723Z,6.30
2023-02-05T00:33:01.204Z,6.03
2023-02-05T00:38:03.004Z,6.25
2023-02-05T00:43:04.404Z,5.93
2023-02-05T00:48:05.880Z,6.20
2023-02-05T00:53:07.666Z,6.25
2023-02-05T00:58:08.985Z,6.68
2023-02-05T01:03:10.488Z,5.88
2023-02-05T01:08:13.562Z,5.72
2023-02-05T01:13:17.939Z,5.40
2023-02-05T01:18:19.689Z,6.03
2023-02-05T01:23:21.083Z,5.45
2023-02-05T01:28:22.528Z,5.05
2023-02-05T01:33:24.077Z,5.13
2023-02-05T01:38:25.460Z,5.60
2023-02-05T01:43:27.011Z,5.07
2023-02-05T01:48:37.711Z,6.65
2023-02-05T01:53:40.385Z,5.53
2023-02-05T01:58:47.310Z,5.50
2023-02-05T02:03:50.252Z,5.82
2023-02-05T02:08:52.171Z,5.55
2023-02-05T02:13:56.557Z,5.30
2023-02-05T02:18:57.940Z,5.47
2023-02-05T02:24:35.504Z,6.40
2023-02-05T02:29:39.240Z,5.63
2023-02-05T02:34:48.255Z,5.75
2023-02-05T02:40:00.758Z,4.85
2023-02-05T02:45:07.398Z,5.30
2023-02-05T02:50:18.889Z,5.20
2023-02-05T02:55:22.530Z,5.10
2023-02-05T03:00:26.567Z,4.90
2023-02-05T03:05:29.693Z,5.40
2023-02-05T03:10:42.582Z,4.95
2023-02-05T03:15:44.989Z,4.15
2023-02-05T03:21:00.129Z,4.65
2023-02-05T03:31:20.045Z,4.00
2023-02-05T03:37:03.565Z,3.42
2023-02-05T03:42:15.154Z,3.83
2023-02-05T03:47:33.771Z,3.70
2023-02-05T03:52:40.849Z,3.65
2023-02-05T03:57:55.034Z,3.33
2023-02-05T04:02:57.130Z,3.60
2023-02-05T04:07:58.579Z,4.25
2023-02-05T04:12:59.870Z,3.20
2023-02-05T04:18:01.520Z,3.30
2023-02-05T04:23:02.912Z,3.40
2023-02-05T04:28:05.664Z,3.20
2023-02-05T04:33:07.229Z,3.75
2023-02-05T04:38:10.053Z,3.15
2023-02-05T04:43:11.356Z,4.15
2023-02-05T04:48:12.679Z,4.32
2023-02-05T04:53:14.330Z,4.57
2023-02-05T04:58:15.982Z,3.70
2023-02-05T05:03:17.291Z,4.20
2023-02-05T05:08:21.494Z,4.60
2023-02-05T05:13:23.044Z,4.53
2023-02-05T05:18:24.465Z,4.63
2023-02-05T05:23:25.879Z,4.88
2023-02-05T05:28:27.693Z,5.22
2023-02-05T05:33:28.973Z,4.60
2023-02-05T05:38:30.282Z,4.57
2023-02-05T05:43:46.497Z,5.57
2023-02-05T05:48:57.069Z,5.65
2023-02-05T05:53:58.545Z,5.47
2023-02-05T05:58:59.874Z,6.22
2023-02-05T06:04:03.917Z,7.35
2023-02-05T06:09:05.620Z,6.40
2023-02-05T06:14:06.956Z,6.05
2023-02-05T06:19:08.315Z,6.88
2023-02-05T06:24:09.675Z,5.15
2023-02-05T06:29:11.022Z,4.80
2023-02-05T06:34:12.480Z,4.72
2023-02-05T06:39:13.827Z,4.68
2023-02-05T06:44:15.167Z,4.07
2023-02-05T06:49:16.532Z,4.78
2023-02-05T06:54:17.922Z,4.35
2023-02-05T06:59:19.694Z,4.40
2023-02-05T07:04:21.256Z,4.57
2023-02-05T07:09:22.730Z,4.63
2023-02-05T07:14:24.176Z,4.15
2023-02-05T07:19:25.933Z,4.30
2023-02-05T07:24:27.524Z,4.18
2023-02-05T07:29:28.988Z,4.10
2023-02-05T07:34:30.306Z,4.57
2023-02-05T07:39:33.639Z,4.30
2023-02-05T07:44:35.020Z,4.20
2023-02-05T07:49:36.661Z,4.85
2023-02-05T07:54:38.250Z,5.82
2023-02-05T07:59:39.617Z,6.18
2023-02-05T08:04:41.024Z,6.55
2023-02-05T08:09:42.356Z,6.95
2023-02-05T08:14:43.967Z,7.35
2023-02-05T08:19:45.538Z,8.48
2023-02-05T08:24:46.890Z,8.35
2023-02-05T08:29:49.213Z,8.85
2023-02-05T08:34:50.655Z,8.63
2023-02-05T08:39:52.461Z,9.25
2023-02-05T08:44:56.069Z,9.82
2023-02-05T08:49:57.381Z,8.38
2023-02-05T08:54:58.888Z,8.82
2023-02-05T09:00:00.312Z,9.60
2023-02-05T09:05:09.053Z,9.77
2023-02-05T09:10:12.975Z,8.68
2023-02-05T09:15:14.532Z,8.50
2023-02-05T09:20:16.087Z,8.43
2023-02-05T09:25:17.441Z,9.15
2023-02-05T09:30:18.945Z,8.70
2023-02-05T09:35:20.302Z,9.15
2023-02-05T09:40:25.448Z,10.38
2023-02-05T09:45:38.439Z,10.30
2023-02-05T09:50:42.122Z,10.40
2023-02-05T09:55:45.889Z,11.13
2023-02-05T10:00:54.901Z,9.48
2023-02-05T10:06:02.388Z,10.35
2023-02-05T10:11:09.303Z,11.32
2023-02-05T10:16:46.227Z,10.82
2023-02-05T10:22:10.926Z,11.98
2023-02-05T10:27:18.346Z,12.60
2023-02-05T10:32:25.179Z,24.25
2023-02-05T10:37:41.653Z,27.38
2023-02-05T10:43:18.245Z,32.50
2023-02-05T10:48:34.014Z,33.60
2023-02-05T10:53:36.261Z,16.80
2023-02-05T10:58:47.819Z,13.43
2023-02-05T11:04:03.150Z,13.85
2023-02-05T11:09:24.792Z,12.05
2023-02-05T11:14:34.360Z,11.63
2023-02-05T11:19:35.722Z,12.48
2023-02-05T11:24:40.405Z,13.85
2023-02-05T11:29:42.660Z,11.23
2023-02-05T11:34:44.028Z,11.23
2023-02-05T11:39:53.833Z,11.45
2023-02-05T11:44:58.735Z,11.23
2023-02-05T11:55:03.304Z,11.60
2023-02-05T12:00:16.053Z,11.65
2023-02-05T12:05:19.490Z,11.35
2023-02-05T12:10:51.409Z,12.07
2023-02-05T12:16:11.366Z,11.40
2023-02-05T12:21:48.348Z,11.63
2023-02-05T12:26:57.548Z,10.73
2023-02-05T12:32:08.422Z,12.15
2023-02-05T12:37:44.973Z,12.32
2023-02-05T12:43:11.239Z,12.48
2023-02-05T12:48:32.320Z,11.77
2023-02-05T12:53:51.957Z,11.40
2023-02-05T12:59:01.377Z,14.80
2023-02-05T13:04:03.624Z,12.02
2023-02-05T13:09:16.205Z,11.23
2023-02-05T13:14:21.288Z,11.75
2023-02-05T13:19:29.995Z,11.27
2023-02-05T13:24:57.125Z,11.55
2023-02-05T13:29:59.845Z,11.18
2023-02-05T13:35:02.020Z,10.95
2023-02-05T13:40:15.364Z,10.15
2023-02-05T13:45:41.566Z,11.40
2023-02-05T13:50:59.289Z,11.02
2023-02-05T13:56:31.016Z,9.65
2023-02-05T14:01:40.838Z,9.65
2023-02-05T14:06:46.705Z,10.32
2023-02-05T14:11:48.051Z,9.45
2023-02-05T14:16:51.030Z,8.63
2023-02-05T14:22:02.093Z,9.20
2023-02-05T14:27:03.594Z,8.68
2023-02-05T14:32:05.278Z,9.65
2023-02-05T14:37:24.948Z,8.68
2023-02-05T14:42:29.254Z,7.63
2023-02-05T14:47:35.832Z,7.47
2023-02-05T14:52:42.465Z,8.40
2023-02-05T14:57:56.704Z,7.60
2023-02-05T15:02:58.060Z,7.00
2023-02-05T15:08:29.568Z,6.65
2023-02-05T15:13:32.030Z,7.57
2023-02-05T15:18:38.872Z,7.45
2023-02-05T15:23:43.916Z,8.25
2023-02-05T15:28:56.368Z,8.82
2023-02-05T15:34:06.760Z,7.72
2023-02-05T15:39:29.084Z,8.25
2023-02-05T15:44:33.797Z,8.52
2023-02-05T15:49:40.182Z,9.10
2023-02-05T15:54:41.592Z,9.15
2023-02-05T15:59:43.030Z,8.82
2023-02-05T16:04:44.656Z,8.65
2023-02-05T16:09:48.918Z,7.75
2023-02-05T16:15:00.950Z,7.78
2023-02-05T16:20:15.082Z,8.38
2023-02-05T16:25:28.728Z,8.20
2023-02-05T16:30:40.280Z,8.82
2023-02-05T16:35:46.307Z,9.52
2023-02-05T16:40:51.934Z,8.65
2023-02-05T16:46:08.553Z,8.98
2023-02-05T16:51:55.279Z,9.60
2023-02-05T16:57:12.767Z,8.40
2023-02-05T17:02:29.178Z,7.93
2023-02-05T17:07:31.730Z,7.88
2023-02-05T17:12:33.076Z,8.40
2023-02-05T17:17:46.084Z,7.50
2023-02-05T17:23:05.724Z,9.07
2023-02-05T17:28:13.137Z,8.00
2023-02-05T17:33:18.502Z,8.30
2023-02-05T17:38:20.504Z,9.40
2023-02-05T17:43:21.794Z,23.25
2023-02-05T17:48:23.142Z,20.65
2023-02-05T17:53:24.863Z,7.80
2023-02-05T17:58:26.290Z,7.65
2023-02-05T18:03:27.608Z,7.43
2023-02-05T18:08:29.691Z,7.85
2023-02-05T18:13:31.029Z,7.18
2023-02-05T18:18:35.718Z,12.10
2023-02-05T18:23:37.182Z,10.40
2023-02-05T18:28:38.629Z,7.03
2023-02-05T18:33:40.348Z,6.47
2023-02-05T18:38:45.898Z,6.25
2023-02-05T18:43:47.496Z,7.15
2023-02-05T18:48:49.311Z,6.70
2023-02-05T18:53:50.853Z,6.22
2023-02-05T18:59:02.286Z,7.03
2023-02-05T19:04:06.588Z,7.13
2023-02-05T19:09:08.149Z,7.32
2023-02-05T19:14:12.241Z,7.15
2023-02-05T19:19:17.356Z,6.90
2023-02-05T19:24:19.844Z,7.05
2023-02-05T19:29:21.270Z,8.13
2023-02-05T19:34:23.370Z,7.15
2023-02-05T19:39:24.998Z,6.95
2023-02-05T19:44:27.506Z,7.93
2023-02-05T19:49:28.922Z,7.97
2023-02-05T19:54:30.404Z,8.30
2023-02-05T19:59:31.824Z,8.18
2023-02-05T20:04:33.255Z,8.88
2023-02-05T20:09:34.749Z,8.95
2023-02-05T20:14:36.039Z,8.77
2023-02-05T20:19:37.443Z,9.05
2023-02-05T20:24:38.788Z,8.15
2023-02-05T20:29:59.119Z,8.15
2023-02-05T20:35:00.510Z,8.68
2023-02-05T20:40:01.882Z,9.15
2023-02-05T20:45:03.473Z,9.10
2023-02-05T20:50:05.864Z,9.05
2023-02-05T20:55:07.621Z,10.40
2023-02-05T21:00:10.045Z,9.60
2023-02-05T21:05:11.326Z,9.27
2023-02-05T21:10:12.660Z,9.70
2023-02-05T21:15:14.221Z,9.85
2023-02-05T21:20:15.968Z,9.45
2023-02-05T21:25:17.398Z,9.63
2023-02-05T21:30:19.506Z,9.68
2023-02-05T21:35:21.095Z,10.43
2023-02-05T21:40:22.828Z,10.07
2023-02-05T21:45:24.290Z,9.07
2023-02-05T21:50:25.664Z,9.90
2023-02-05T21:55:27.020Z,10.30
2023-02-05T22:00:28.937Z,11.15
2023-02-05T22:05:30.773Z,10.00
2023-02-05T22:10:32.151Z,10.00
2023-02-05T22:15:33.702Z,12.00
2023-02-05T22:20:35.184Z,13.77
2023-02-05T22:25:37.777Z,12.95
2023-02-05T22:30:39.928Z,12.23
2023-02-05T22:35:41.244Z,10.77
2023-02-05T22:40:42.669Z,9.43
2023-02-05T22:45:44.322Z,9.57
2023-02-05T22:50:45.981Z,10.50
2023-02-05T22:55:47.411Z,9.82
2023-02-05T23:00:48.763Z,10.07
2023-02-05T23:05:50.770Z,10.35
2023-02-05T23:10:52.348Z,10.95
2023-02-05T23:15:53.658Z,10.48
2023-02-05T23:20:54.968Z,10.35
2023-02-05T23:25:56.326Z,9.85
2023-02-05T23:30:57.716Z,10.00
2023-02-05T23:35:59.744Z,10.10
2023-02-05T23:41:01.572Z,9.68
2023-02-05T23:46:03.550Z,10.63
2023-02-05T23:51:04.897Z,10.82
2023-02-05T23:56:06.301Z,10.60
